# Tabular Observed and Forecast Hydrograph Information
#
# Location: Santa Ana River - Muni Water Dist Crossing (MWXC1)
#
# File Generation Time: 05/04/2026 at 07:05 AM PDT
# Data Interval: 1 Hour
#
# Most Recent Date & Time of Maximum Observed: 05/01/2026 at 09:00 AM PDT
# Maximum Observed Stage: 3.92 Feet
# Maximum Observed Flow: 60 cfs
#
# Earliest Date & Time of Maximum Forecast: 05/04/2026 at 07:00 AM PDT
# Maximum Forecast Stage: 3.88 Feet
# Maximum Forecast Flow: 54 cfs
#
# OBSERVED
#
# Date & Time (Local) Stage (Feet) Flow (cfs) Trend Observed Status
# ---------------------------------------------------------------------------------
04/29/2026 07 AM PDT 3.90 57 Not Applicable
04/29/2026 08 AM PDT 3.90 57 0 Not Applicable
04/29/2026 09 AM PDT 3.88 54 - Not Applicable
04/29/2026 10 AM PDT 3.87 52 - Not Applicable
04/29/2026 11 AM PDT 3.89 55 + Not Applicable
04/29/2026 12 PM PDT 3.88 54 - Not Applicable
04/29/2026 01 PM PDT 3.89 55 + Not Applicable
04/29/2026 02 PM PDT 3.86 51 - Not Applicable
04/29/2026 03 PM PDT 3.88 54 + Not Applicable
04/29/2026 04 PM PDT 3.86 51 - Not Applicable
04/29/2026 05 PM PDT 3.88 54 + Not Applicable
04/29/2026 06 PM PDT 3.87 52 - Not Applicable
04/29/2026 07 PM PDT 3.89 55 + Not Applicable
04/29/2026 08 PM PDT 3.88 54 - Not Applicable
04/29/2026 09 PM PDT 3.89 55 + Not Applicable
04/29/2026 10 PM PDT 3.90 57 + Not Applicable
04/29/2026 11 PM PDT 3.90 57 0 Not Applicable
04/30/2026 12 AM PDT 3.88 54 - Not Applicable
04/30/2026 01 AM PDT 3.89 55 + Not Applicable
04/30/2026 02 AM PDT 3.91 58 + Not Applicable
04/30/2026 03 AM PDT 3.89 55 - Not Applicable
04/30/2026 04 AM PDT 3.91 58 + Not Applicable
04/30/2026 05 AM PDT 3.89 55 - Not Applicable
04/30/2026 06 AM PDT 3.89 55 0 Not Applicable
04/30/2026 07 AM PDT 3.90 57 + Not Applicable
04/30/2026 08 AM PDT 3.90 57 0 Not Applicable
04/30/2026 09 AM PDT 3.89 55 - Not Applicable
04/30/2026 10 AM PDT 3.90 57 + Not Applicable
04/30/2026 11 AM PDT 3.89 55 - Not Applicable
04/30/2026 12 PM PDT 3.90 57 + Not Applicable
04/30/2026 01 PM PDT 3.89 55 - Not Applicable
04/30/2026 02 PM PDT 3.89 55 0 Not Applicable
04/30/2026 03 PM PDT 3.90 57 + Not Applicable
04/30/2026 04 PM PDT 3.89 55 - Not Applicable
04/30/2026 05 PM PDT 3.88 54 - Not Applicable
04/30/2026 06 PM PDT 3.88 54 0 Not Applicable
04/30/2026 07 PM PDT 3.88 54 0 Not Applicable
04/30/2026 08 PM PDT 3.90 57 + Not Applicable
04/30/2026 09 PM PDT 3.90 57 0 Not Applicable
04/30/2026 10 PM PDT 3.88 54 - Not Applicable
04/30/2026 11 PM PDT 3.91 58 + Not Applicable
05/01/2026 12 AM PDT 3.89 55 - Not Applicable
05/01/2026 01 AM PDT 3.90 57 + Not Applicable
05/01/2026 02 AM PDT 3.91 58 + Not Applicable
05/01/2026 03 AM PDT 3.87 52 - Not Applicable
05/01/2026 04 AM PDT 3.91 58 + Not Applicable
05/01/2026 05 AM PDT 3.88 54 - Not Applicable
05/01/2026 06 AM PDT 3.90 57 + Not Applicable
05/01/2026 07 AM PDT 3.89 55 - Not Applicable
05/01/2026 08 AM PDT 3.89 55 0 Not Applicable
05/01/2026 09 AM PDT 3.92 60 + Not Applicable
05/01/2026 10 AM PDT 3.89 55 - Not Applicable
05/01/2026 11 AM PDT 3.91 58 + Not Applicable
05/01/2026 12 PM PDT 3.88 54 - Not Applicable
05/01/2026 01 PM PDT 3.86 51 - Not Applicable
05/01/2026 02 PM PDT 3.89 55 + Not Applicable
05/01/2026 03 PM PDT 3.86 51 - Not Applicable
05/01/2026 04 PM PDT 3.87 52 + Not Applicable
05/01/2026 05 PM PDT 3.85 49 - Not Applicable
05/01/2026 06 PM PDT 3.86 51 + Not Applicable
05/01/2026 07 PM PDT 3.87 52 + Not Applicable
05/01/2026 08 PM PDT 3.87 52 0 Not Applicable
05/01/2026 09 PM PDT 3.89 55 + Not Applicable
05/01/2026 10 PM PDT 3.89 55 0 Not Applicable
05/01/2026 11 PM PDT 3.87 52 - Not Applicable
05/02/2026 12 AM PDT 3.91 58 + Not Applicable
05/02/2026 01 AM PDT 3.89 55 - Not Applicable
05/02/2026 02 AM PDT 3.88 54 - Not Applicable
05/02/2026 03 AM PDT 3.90 57 + Not Applicable
05/02/2026 04 AM PDT 3.87 52 - Not Applicable
05/02/2026 05 AM PDT 3.87 52 0 Not Applicable
05/02/2026 06 AM PDT 3.91 58 + Not Applicable
05/02/2026 07 AM PDT 3.90 57 - Not Applicable
05/02/2026 08 AM PDT 3.89 55 - Not Applicable
05/02/2026 09 AM PDT 3.88 54 - Not Applicable
05/02/2026 10 AM PDT 3.87 52 - Not Applicable
05/02/2026 11 AM PDT 3.86 51 - Not Applicable
05/02/2026 12 PM PDT 3.86 51 0 Not Applicable
05/02/2026 01 PM PDT 3.86 51 0 Not Applicable
05/02/2026 02 PM PDT 3.87 52 + Not Applicable
05/02/2026 03 PM PDT 3.86 51 - Not Applicable
05/02/2026 04 PM PDT 3.86 51 0 Not Applicable
05/02/2026 05 PM PDT 3.86 51 0 Not Applicable
05/02/2026 06 PM PDT 3.86 51 0 Not Applicable
05/02/2026 07 PM PDT 3.87 52 + Not Applicable
05/02/2026 08 PM PDT 3.85 49 - Not Applicable
05/02/2026 09 PM PDT 3.86 51 + Not Applicable
05/02/2026 10 PM PDT 3.89 55 + Not Applicable
05/02/2026 11 PM PDT 3.89 55 0 Not Applicable
05/03/2026 12 AM PDT 3.87 52 - Not Applicable
05/03/2026 01 AM PDT 3.87 52 0 Not Applicable
05/03/2026 02 AM PDT 3.89 55 + Not Applicable
05/03/2026 03 AM PDT 3.89 55 0 Not Applicable
05/03/2026 04 AM PDT 3.88 54 - Not Applicable
05/03/2026 05 AM PDT 3.89 55 + Not Applicable
05/03/2026 06 AM PDT 3.88 54 - Not Applicable
05/03/2026 07 AM PDT 3.88 54 0 Not Applicable
05/03/2026 08 AM PDT 3.89 55 + Not Applicable
05/03/2026 09 AM PDT 3.87 52 - Not Applicable
05/03/2026 10 AM PDT 3.88 54 + Not Applicable
05/03/2026 11 AM PDT 3.87 52 - Not Applicable
05/03/2026 12 PM PDT 3.87 52 0 Not Applicable
05/03/2026 01 PM PDT 3.85 49 - Not Applicable
05/03/2026 02 PM PDT 3.85 49 0 Not Applicable
05/03/2026 03 PM PDT 3.85 49 0 Not Applicable
05/03/2026 04 PM PDT 3.86 51 + Not Applicable
05/03/2026 05 PM PDT 3.87 52 + Not Applicable
05/03/2026 06 PM PDT 3.84 48 - Not Applicable
05/03/2026 07 PM PDT 3.86 51 + Not Applicable
05/03/2026 08 PM PDT 3.88 54 + Not Applicable
05/03/2026 09 PM PDT 3.87 52 - Not Applicable
05/03/2026 10 PM PDT 3.89 55 + Not Applicable
05/03/2026 11 PM PDT 3.87 52 - Not Applicable
05/04/2026 12 AM PDT 3.88 54 + Not Applicable
05/04/2026 01 AM PDT 3.89 55 + Not Applicable
05/04/2026 02 AM PDT 3.89 55 0 Not Applicable
05/04/2026 03 AM PDT 3.90 57 + Not Applicable
05/04/2026 04 AM PDT 3.86 51 - Not Applicable
05/04/2026 05 AM PDT 3.88 54 + Not Applicable
05/04/2026 06 AM PDT 3.88 54 0 Not Applicable
#
# FORECAST
#
# Date & Time (Local) Stage (Feet) Flow (cfs) Trend Forecast Status
# ---------------------------------------------------------------------------------
05/04/2026 07 AM PDT 3.88 54 Not Applicable
05/04/2026 08 AM PDT 3.88 54 0 Not Applicable
05/04/2026 09 AM PDT 3.88 54 0 Not Applicable
05/04/2026 10 AM PDT 3.88 54 0 Not Applicable
05/04/2026 11 AM PDT 3.87 52 - Not Applicable
05/04/2026 12 PM PDT 3.87 52 0 Not Applicable
05/04/2026 01 PM PDT 3.87 52 0 Not Applicable
05/04/2026 02 PM PDT 3.87 52 0 Not Applicable
05/04/2026 03 PM PDT 3.87 52 0 Not Applicable
05/04/2026 04 PM PDT 3.87 52 0 Not Applicable
05/04/2026 05 PM PDT 3.87 52 0 Not Applicable
05/04/2026 06 PM PDT 3.87 52 0 Not Applicable
05/04/2026 07 PM PDT 3.87 52 0 Not Applicable
05/04/2026 08 PM PDT 3.87 52 0 Not Applicable
05/04/2026 09 PM PDT 3.87 52 0 Not Applicable
05/04/2026 10 PM PDT 3.87 52 0 Not Applicable
05/04/2026 11 PM PDT 3.87 52 0 Not Applicable
05/05/2026 12 AM PDT 3.87 52 0 Not Applicable
05/05/2026 01 AM PDT 3.87 52 0 Not Applicable
05/05/2026 02 AM PDT 3.87 52 0 Not Applicable
05/05/2026 03 AM PDT 3.87 52 0 Not Applicable
05/05/2026 04 AM PDT 3.87 52 0 Not Applicable
05/05/2026 05 AM PDT 3.87 52 0 Not Applicable
05/05/2026 06 AM PDT 3.87 52 0 Not Applicable
05/05/2026 07 AM PDT 3.87 52 0 Not Applicable
05/05/2026 08 AM PDT 3.87 52 0 Not Applicable
05/05/2026 09 AM PDT 3.87 52 0 Not Applicable
05/05/2026 10 AM PDT 3.87 52 0 Not Applicable
05/05/2026 11 AM PDT 3.87 52 0 Not Applicable
05/05/2026 12 PM PDT 3.87 52 0 Not Applicable
05/05/2026 01 PM PDT 3.87 52 0 Not Applicable
05/05/2026 02 PM PDT 3.87 52 0 Not Applicable
05/05/2026 03 PM PDT 3.87 52 0 Not Applicable
05/05/2026 04 PM PDT 3.87 52 0 Not Applicable
05/05/2026 05 PM PDT 3.87 52 0 Not Applicable
05/05/2026 06 PM PDT 3.87 52 0 Not Applicable
05/05/2026 07 PM PDT 3.87 52 0 Not Applicable
05/05/2026 08 PM PDT 3.87 52 0 Not Applicable
05/05/2026 09 PM PDT 3.87 52 0 Not Applicable
05/05/2026 10 PM PDT 3.87 52 0 Not Applicable
05/05/2026 11 PM PDT 3.87 52 0 Not Applicable
05/06/2026 12 AM PDT 3.87 52 0 Not Applicable
05/06/2026 01 AM PDT 3.87 52 0 Not Applicable
05/06/2026 02 AM PDT 3.87 52 0 Not Applicable
05/06/2026 03 AM PDT 3.87 52 0 Not Applicable
05/06/2026 04 AM PDT 3.87 52 0 Not Applicable
05/06/2026 05 AM PDT 3.87 52 0 Not Applicable
05/06/2026 06 AM PDT 3.87 52 0 Not Applicable
05/06/2026 07 AM PDT 3.87 52 0 Not Applicable
05/06/2026 08 AM PDT 3.87 52 0 Not Applicable
05/06/2026 09 AM PDT 3.87 52 0 Not Applicable
05/06/2026 10 AM PDT 3.87 52 0 Not Applicable
05/06/2026 11 AM PDT 3.87 52 0 Not Applicable
05/06/2026 12 PM PDT 3.87 52 0 Not Applicable
05/06/2026 01 PM PDT 3.87 52 0 Not Applicable
05/06/2026 02 PM PDT 3.87 52 0 Not Applicable
05/06/2026 03 PM PDT 3.87 52 0 Not Applicable
05/06/2026 04 PM PDT 3.87 52 0 Not Applicable
05/06/2026 05 PM PDT 3.87 52 0 Not Applicable
05/06/2026 06 PM PDT 3.87 52 0 Not Applicable
05/06/2026 07 PM PDT 3.87 52 0 Not Applicable
05/06/2026 08 PM PDT 3.87 52 0 Not Applicable
05/06/2026 09 PM PDT 3.87 52 0 Not Applicable
05/06/2026 10 PM PDT 3.87 52 0 Not Applicable
05/06/2026 11 PM PDT 3.87 52 0 Not Applicable
05/07/2026 12 AM PDT 3.87 52 0 Not Applicable
05/07/2026 01 AM PDT 3.87 52 0 Not Applicable
05/07/2026 02 AM PDT 3.87 52 0 Not Applicable
05/07/2026 03 AM PDT 3.87 52 0 Not Applicable
05/07/2026 04 AM PDT 3.87 52 0 Not Applicable
05/07/2026 05 AM PDT 3.87 52 0 Not Applicable
05/07/2026 06 AM PDT 3.87 52 0 Not Applicable
05/07/2026 07 AM PDT 3.87 52 0 Not Applicable
05/07/2026 08 AM PDT 3.87 52 0 Not Applicable
05/07/2026 09 AM PDT 3.87 52 0 Not Applicable
05/07/2026 10 AM PDT 3.87 52 0 Not Applicable
05/07/2026 11 AM PDT 3.87 52 0 Not Applicable
05/07/2026 12 PM PDT 3.87 52 0 Not Applicable
05/07/2026 01 PM PDT 3.87 52 0 Not Applicable
05/07/2026 02 PM PDT 3.87 52 0 Not Applicable
05/07/2026 03 PM PDT 3.87 52 0 Not Applicable
05/07/2026 04 PM PDT 3.87 52 0 Not Applicable
05/07/2026 05 PM PDT 3.87 52 0 Not Applicable
05/07/2026 06 PM PDT 3.87 52 0 Not Applicable
05/07/2026 07 PM PDT 3.87 52 0 Not Applicable
05/07/2026 08 PM PDT 3.87 52 0 Not Applicable
05/07/2026 09 PM PDT 3.87 52 0 Not Applicable
05/07/2026 10 PM PDT 3.87 52 0 Not Applicable
05/07/2026 11 PM PDT 3.87 52 0 Not Applicable
05/08/2026 12 AM PDT 3.87 52 0 Not Applicable
05/08/2026 01 AM PDT 3.87 52 0 Not Applicable
05/08/2026 02 AM PDT 3.87 52 0 Not Applicable
05/08/2026 03 AM PDT 3.87 52 0 Not Applicable
05/08/2026 04 AM PDT 3.87 52 0 Not Applicable
05/08/2026 05 AM PDT 3.87 52 0 Not Applicable
05/08/2026 06 AM PDT 3.87 52 0 Not Applicable
05/08/2026 07 AM PDT 3.87 52 0 Not Applicable
05/08/2026 08 AM PDT 3.87 52 0 Not Applicable
05/08/2026 09 AM PDT 3.87 52 0 Not Applicable
05/08/2026 10 AM PDT 3.87 52 0 Not Applicable
05/08/2026 11 AM PDT 3.87 52 0 Not Applicable
05/08/2026 12 PM PDT 3.87 52 0 Not Applicable
05/08/2026 01 PM PDT 3.87 52 0 Not Applicable
05/08/2026 02 PM PDT 3.87 52 0 Not Applicable
05/08/2026 03 PM PDT 3.87 52 0 Not Applicable
05/08/2026 04 PM PDT 3.87 52 0 Not Applicable
05/08/2026 05 PM PDT 3.87 52 0 Not Applicable
05/08/2026 06 PM PDT 3.87 52 0 Not Applicable
05/08/2026 07 PM PDT 3.87 52 0 Not Applicable
05/08/2026 08 PM PDT 3.87 52 0 Not Applicable
05/08/2026 09 PM PDT 3.87 52 0 Not Applicable
05/08/2026 10 PM PDT 3.87 52 0 Not Applicable
05/08/2026 11 PM PDT 3.87 52 0 Not Applicable
05/09/2026 12 AM PDT 3.87 52 0 Not Applicable
05/09/2026 01 AM PDT 3.87 52 0 Not Applicable
05/09/2026 02 AM PDT 3.87 52 0 Not Applicable
05/09/2026 03 AM PDT 3.87 52 0 Not Applicable
05/09/2026 04 AM PDT 3.87 52 0 Not Applicable
05/09/2026 05 AM PDT 3.87 52 0 Not Applicable
#
# NOTE 1: Stages are rounded to the nearest hundredth (.01) of a foot.
# NOTE 2: Flows are rounded to the nearest (1) cfs.
# NOTE 3: Trends are determined using hourly change in unrounded stage and flow.
# NOTE 4: Maximum Values are determined using unrounded stage and flow.
|